sensor_id;sensor_type;location;lat;lon;timestamp;P1;durP1;ratioP1;P2;durP2;ratioP2
67051;SDS011;53957;47.222;18.670;2022-11-20T00:03:02;20.25;;;9.98;;
67051;SDS011;53957;47.222;18.670;2022-11-20T00:06:07;17.42;;;10.50;;
67051;SDS011;53957;47.222;18.670;2022-11-20T00:09:12;14.38;;;9.93;;
67051;SDS011;53957;47.222;18.670;2022-11-20T00:12:15;10.30;;;7.97;;
67051;SDS011;53957;47.222;18.670;2022-11-20T00:15:18;11.57;;;7.97;;
67051;SDS011;53957;47.222;18.670;2022-11-20T00:18:21;18.33;;;9.32;;
67051;SDS011;53957;47.222;18.670;2022-11-20T00:21:25;13.10;;;7.80;;
67051;SDS011;53957;47.222;18.670;2022-11-20T00:24:29;16.27;;;9.43;;
67051;SDS011;53957;47.222;18.670;2022-11-20T00:27:31;12.82;;;7.97;;
67051;SDS011;53957;47.222;18.670;2022-11-20T00:30:35;17.75;;;9.57;;
67051;SDS011;53957;47.222;18.670;2022-11-20T00:33:37;17.90;;;9.52;;
67051;SDS011;53957;47.222;18.670;2022-11-20T00:36:40;14.75;;;8.68;;
67051;SDS011;53957;47.222;18.670;2022-11-20T00:39:43;19.52;;;9.57;;
67051;SDS011;53957;47.222;18.670;2022-11-20T00:42:55;10.68;;;8.23;;
67051;SDS011;53957;47.222;18.670;2022-11-20T00:45:58;6.68;;;5.75;;
67051;SDS011;53957;47.222;18.670;2022-11-20T00:49:01;16.42;;;7.37;;
67051;SDS011;53957;47.222;18.670;2022-11-20T00:52:05;16.90;;;7.40;;
67051;SDS011;53957;47.222;18.670;2022-11-20T00:55:08;13.18;;;9.25;;
67051;SDS011;53957;47.222;18.670;2022-11-20T00:58:11;7.07;;;6.12;;
67051;SDS011;53957;47.222;18.670;2022-11-20T01:01:23;16.08;;;8.38;;
67051;SDS011;53957;47.222;18.670;2022-11-20T01:04:27;14.68;;;9.25;;
67051;SDS011;53957;47.222;18.670;2022-11-20T01:07:31;14.32;;;8.70;;
67051;SDS011;53957;47.222;18.670;2022-11-20T01:10:34;7.18;;;5.10;;
67051;SDS011;53957;47.222;18.670;2022-11-20T01:13:37;13.02;;;7.18;;
67051;SDS011;53957;47.222;18.670;2022-11-20T01:16:41;11.20;;;7.65;;
67051;SDS011;53957;47.222;18.670;2022-11-20T01:19:50;12.93;;;7.85;;
67051;SDS011;53957;47.222;18.670;2022-11-20T01:22:53;12.65;;;7.97;;
67051;SDS011;53957;47.222;18.670;2022-11-20T01:25:58;12.05;;;8.93;;
67051;SDS011;53957;47.222;18.670;2022-11-20T01:48:08;12.05;;;8.50;;
67051;SDS011;53957;47.222;18.670;2022-11-20T01:51:39;16.80;;;9.00;;
67051;SDS011;53957;47.222;18.670;2022-11-20T01:54:56;14.18;;;8.70;;
67051;SDS011;53957;47.222;18.670;2022-11-20T01:58:07;11.52;;;7.75;;
67051;SDS011;53957;47.222;18.670;2022-11-20T02:01:36;14.70;;;9.10;;
67051;SDS011;53957;47.222;18.670;2022-11-20T02:05:09;17.73;;;9.80;;
67051;SDS011;53957;47.222;18.670;2022-11-20T02:08:19;13.80;;;9.00;;
67051;SDS011;53957;47.222;18.670;2022-11-20T02:11:22;18.92;;;8.23;;
67051;SDS011;53957;47.222;18.670;2022-11-20T02:14:25;14.50;;;9.82;;
67051;SDS011;53957;47.222;18.670;2022-11-20T02:17:31;16.77;;;9.98;;
67051;SDS011;53957;47.222;18.670;2022-11-20T02:20:34;14.32;;;8.63;;
67051;SDS011;53957;47.222;18.670;2022-11-20T02:23:39;14.90;;;8.38;;
67051;SDS011;53957;47.222;18.670;2022-11-20T02:26:53;18.12;;;9.52;;
67051;SDS011;53957;47.222;18.670;2022-11-20T02:30:18;13.18;;;7.85;;
67051;SDS011;53957;47.222;18.670;2022-11-20T02:33:21;15.05;;;8.70;;
67051;SDS011;53957;47.222;18.670;2022-11-20T02:36:24;14.55;;;9.57;;
67051;SDS011;53957;47.222;18.670;2022-11-20T02:39:29;16.70;;;8.85;;
67051;SDS011;53957;47.222;18.670;2022-11-20T02:42:32;14.35;;;8.75;;
67051;SDS011;53957;47.222;18.670;2022-11-20T02:45:35;18.10;;;8.65;;
67051;SDS011;53957;47.222;18.670;2022-11-20T02:48:38;14.32;;;8.70;;
67051;SDS011;53957;47.222;18.670;2022-11-20T02:51:41;14.40;;;8.15;;
67051;SDS011;53957;47.222;18.670;2022-11-20T02:54:44;14.38;;;8.02;;
67051;SDS011;53957;47.222;18.670;2022-11-20T02:57:46;13.30;;;7.93;;
67051;SDS011;53957;47.222;18.670;2022-11-20T03:04:06;15.05;;;8.50;;
67051;SDS011;53957;47.222;18.670;2022-11-20T03:07:09;14.23;;;9.15;;
67051;SDS011;53957;47.222;18.670;2022-11-20T03:10:12;12.73;;;8.15;;
67051;SDS011;53957;47.222;18.670;2022-11-20T03:13:15;10.77;;;6.30;;
67051;SDS011;53957;47.222;18.670;2022-11-20T03:16:19;12.20;;;7.93;;
67051;SDS011;53957;47.222;18.670;2022-11-20T03:19:24;15.45;;;8.75;;
67051;SDS011;53957;47.222;18.670;2022-11-20T03:22:28;15.02;;;9.18;;
67051;SDS011;53957;47.222;18.670;2022-11-20T03:25:32;12.00;;;8.02;;
67051;SDS011;53957;47.222;18.670;2022-11-20T03:28:35;14.40;;;8.07;;
67051;SDS011;53957;47.222;18.670;2022-11-20T03:31:39;19.42;;;10.20;;
67051;SDS011;53957;47.222;18.670;2022-11-20T03:34:42;14.68;;;9.88;;
67051;SDS011;53957;47.222;18.670;2022-11-20T03:37:45;13.57;;;8.40;;
67051;SDS011;53957;47.222;18.670;2022-11-20T03:40:48;16.25;;;9.35;;
67051;SDS011;53957;47.222;18.670;2022-11-20T03:43:52;16.27;;;9.05;;
67051;SDS011;53957;47.222;18.670;2022-11-20T03:46:59;18.67;;;10.13;;
67051;SDS011;53957;47.222;18.670;2022-11-20T03:50:03;16.12;;;9.35;;
67051;SDS011;53957;47.222;18.670;2022-11-20T03:53:06;16.27;;;9.43;;
67051;SDS011;53957;47.222;18.670;2022-11-20T03:56:09;16.80;;;9.63;;
67051;SDS011;53957;47.222;18.670;2022-11-20T03:59:13;15.70;;;10.07;;
67051;SDS011;53957;47.222;18.670;2022-11-20T04:02:16;19.25;;;11.80;;
67051;SDS011;53957;47.222;18.670;2022-11-20T04:05:19;16.02;;;9.45;;
67051;SDS011;53957;47.222;18.670;2022-11-20T04:08:22;18.42;;;9.50;;
67051;SDS011;53957;47.222;18.670;2022-11-20T04:11:27;17.52;;;10.02;;
67051;SDS011;53957;47.222;18.670;2022-11-20T04:14:31;17.25;;;9.38;;
67051;SDS011;53957;47.222;18.670;2022-11-20T04:17:34;21.12;;;9.43;;
67051;SDS011;53957;47.222;18.670;2022-11-20T04:20:38;14.30;;;8.18;;
67051;SDS011;53957;47.222;18.670;2022-11-20T04:23:42;12.45;;;8.32;;
67051;SDS011;53957;47.222;18.670;2022-11-20T04:27:04;13.13;;;8.43;;
67051;SDS011;53957;47.222;18.670;2022-11-20T04:30:24;15.35;;;8.25;;
67051;SDS011;53957;47.222;18.670;2022-11-20T04:37:09;15.80;;;9.65;;
67051;SDS011;53957;47.222;18.670;2022-11-20T04:40:12;19.10;;;12.57;;
67051;SDS011;53957;47.222;18.670;2022-11-20T04:43:15;16.25;;;8.90;;
67051;SDS011;53957;47.222;18.670;2022-11-20T04:46:18;18.70;;;9.90;;
67051;SDS011;53957;47.222;18.670;2022-11-20T04:49:23;16.77;;;9.48;;
67051;SDS011;53957;47.222;18.670;2022-11-20T04:52:26;16.25;;;10.75;;
67051;SDS011;53957;47.222;18.670;2022-11-20T04:55:29;19.73;;;9.55;;
67051;SDS011;53957;47.222;18.670;2022-11-20T04:58:32;20.60;;;10.52;;
67051;SDS011;53957;47.222;18.670;2022-11-20T05:01:36;23.70;;;11.73;;
67051;SDS011;53957;47.222;18.670;2022-11-20T05:04:38;15.82;;;9.60;;
67051;SDS011;53957;47.222;18.670;2022-11-20T05:07:41;15.20;;;9.95;;
67051;SDS011;53957;47.222;18.670;2022-11-20T05:10:44;16.33;;;9.80;;
67051;SDS011;53957;47.222;18.670;2022-11-20T05:13:49;13.68;;;8.65;;
67051;SDS011;53957;47.222;18.670;2022-11-20T05:16:53;16.50;;;11.07;;
67051;SDS011;53957;47.222;18.670;2022-11-20T05:19:56;13.52;;;9.68;;
67051;SDS011;53957;47.222;18.670;2022-11-20T05:23:07;13.00;;;8.88;;
67051;SDS011;53957;47.222;18.670;2022-11-20T05:26:14;15.82;;;9.85;;
67051;SDS011;53957;47.222;18.670;2022-11-20T05:29:19;19.12;;;10.63;;
67051;SDS011;53957;47.222;18.670;2022-11-20T05:35:38;17.95;;;10.70;;
67051;SDS011;53957;47.222;18.670;2022-11-20T05:38:41;17.95;;;11.48;;
67051;SDS011;53957;47.222;18.670;2022-11-20T05:41:45;20.50;;;12.10;;
67051;SDS011;53957;47.222;18.670;2022-11-20T05:44:47;23.20;;;14.38;;
67051;SDS011;53957;47.222;18.670;2022-11-20T05:47:50;20.25;;;12.43;;
67051;SDS011;53957;47.222;18.670;2022-11-20T05:50:53;18.67;;;10.50;;
67051;SDS011;53957;47.222;18.670;2022-11-20T05:53:56;20.05;;;11.73;;
67051;SDS011;53957;47.222;18.670;2022-11-20T05:57:00;16.55;;;9.65;;
67051;SDS011;53957;47.222;18.670;2022-11-20T06:00:03;18.52;;;10.43;;
67051;SDS011;53957;47.222;18.670;2022-11-20T06:03:06;16.02;;;9.85;;
67051;SDS011;53957;47.222;18.670;2022-11-20T06:06:09;14.75;;;9.13;;
67051;SDS011;53957;47.222;18.670;2022-11-20T06:09:12;14.05;;;8.88;;
67051;SDS011;53957;47.222;18.670;2022-11-20T06:12:15;16.70;;;10.32;;
67051;SDS011;53957;47.222;18.670;2022-11-20T06:15:18;16.12;;;9.27;;
67051;SDS011;53957;47.222;18.670;2022-11-20T06:18:21;20.02;;;9.45;;
67051;SDS011;53957;47.222;18.670;2022-11-20T06:21:26;14.32;;;8.30;;
67051;SDS011;53957;47.222;18.670;2022-11-20T06:24:28;12.77;;;8.10;;
67051;SDS011;53957;47.222;18.670;2022-11-20T06:27:31;14.45;;;9.85;;
67051;SDS011;53957;47.222;18.670;2022-11-20T06:30:35;14.35;;;9.10;;
67051;SDS011;53957;47.222;18.670;2022-11-20T06:33:38;18.02;;;9.77;;
67051;SDS011;53957;47.222;18.670;2022-11-20T06:36:41;14.77;;;9.60;;
67051;SDS011;53957;47.222;18.670;2022-11-20T06:39:44;17.45;;;9.38;;
67051;SDS011;53957;47.222;18.670;2022-11-20T06:42:47;15.20;;;8.90;;
67051;SDS011;53957;47.222;18.670;2022-11-20T06:45:57;18.50;;;9.80;;
67051;SDS011;53957;47.222;18.670;2022-11-20T06:49:01;19.12;;;9.98;;
67051;SDS011;53957;47.222;18.670;2022-11-20T06:52:04;16.35;;;10.05;;
67051;SDS011;53957;47.222;18.670;2022-11-20T06:55:07;16.58;;;10.25;;
67051;SDS011;53957;47.222;18.670;2022-11-20T06:58:31;15.20;;;9.65;;
67051;SDS011;53957;47.222;18.670;2022-11-20T07:01:35;15.48;;;9.93;;
67051;SDS011;53957;47.222;18.670;2022-11-20T07:04:38;20.05;;;12.18;;
67051;SDS011;53957;47.222;18.670;2022-11-20T07:07:41;13.85;;;9.75;;
67051;SDS011;53957;47.222;18.670;2022-11-20T07:10:44;13.30;;;9.00;;
67051;SDS011;53957;47.222;18.670;2022-11-20T07:13:49;15.88;;;9.40;;
67051;SDS011;53957;47.222;18.670;2022-11-20T07:16:52;20.48;;;11.85;;
67051;SDS011;53957;47.222;18.670;2022-11-20T07:19:55;16.50;;;9.68;;
67051;SDS011;53957;47.222;18.670;2022-11-20T07:22:58;18.17;;;10.90;;
67051;SDS011;53957;47.222;18.670;2022-11-20T07:26:05;15.30;;;9.07;;
67051;SDS011;53957;47.222;18.670;2022-11-20T07:29:09;15.93;;;8.88;;
67051;SDS011;53957;47.222;18.670;2022-11-20T07:32:12;15.23;;;9.02;;
67051;SDS011;53957;47.222;18.670;2022-11-20T07:35:18;24.42;;;10.98;;
67051;SDS011;53957;47.222;18.670;2022-11-20T07:38:21;15.93;;;10.30;;
67051;SDS011;53957;47.222;18.670;2022-11-20T07:41:24;17.90;;;9.70;;
67051;SDS011;53957;47.222;18.670;2022-11-20T07:44:27;16.50;;;9.55;;
67051;SDS011;53957;47.222;18.670;2022-11-20T07:47:36;18.65;;;9.65;;
67051;SDS011;53957;47.222;18.670;2022-11-20T07:50:39;21.02;;;12.13;;
67051;SDS011;53957;47.222;18.670;2022-11-20T07:53:42;19.33;;;11.65;;
67051;SDS011;53957;47.222;18.670;2022-11-20T07:56:45;21.60;;;11.12;;
67051;SDS011;53957;47.222;18.670;2022-11-20T07:59:49;18.90;;;10.57;;
67051;SDS011;53957;47.222;18.670;2022-11-20T08:02:52;18.83;;;10.60;;
67051;SDS011;53957;47.222;18.670;2022-11-20T08:05:58;20.88;;;11.63;;
67051;SDS011;53957;47.222;18.670;2022-11-20T08:09:03;18.48;;;11.18;;
67051;SDS011;53957;47.222;18.670;2022-11-20T08:12:06;19.60;;;10.55;;
67051;SDS011;53957;47.222;18.670;2022-11-20T08:15:27;16.77;;;9.38;;
67051;SDS011;53957;47.222;18.670;2022-11-20T08:18:30;18.17;;;11.15;;
67051;SDS011;53957;47.222;18.670;2022-11-20T08:21:34;17.85;;;10.45;;
67051;SDS011;53957;47.222;18.670;2022-11-20T08:24:40;17.85;;;10.93;;
67051;SDS011;53957;47.222;18.670;2022-11-20T08:27:42;20.33;;;12.55;;
67051;SDS011;53957;47.222;18.670;2022-11-20T08:30:46;25.67;;;12.70;;
67051;SDS011;53957;47.222;18.670;2022-11-20T08:33:49;23.98;;;12.35;;
67051;SDS011;53957;47.222;18.670;2022-11-20T08:36:52;21.67;;;11.63;;
67051;SDS011;53957;47.222;18.670;2022-11-20T08:39:55;21.00;;;12.00;;
67051;SDS011;53957;47.222;18.670;2022-11-20T08:42:59;20.17;;;10.05;;
67051;SDS011;53957;47.222;18.670;2022-11-20T08:46:03;19.67;;;12.07;;
67051;SDS011;53957;47.222;18.670;2022-11-20T08:49:07;23.70;;;12.27;;
67051;SDS011;53957;47.222;18.670;2022-11-20T08:52:12;16.30;;;10.27;;
67051;SDS011;53957;47.222;18.670;2022-11-20T08:55:15;23.02;;;12.55;;
67051;SDS011;53957;47.222;18.670;2022-11-20T08:58:18;20.88;;;12.10;;
67051;SDS011;53957;47.222;18.670;2022-11-20T09:01:21;19.83;;;12.65;;
67051;SDS011;53957;47.222;18.670;2022-11-20T09:04:25;18.30;;;11.50;;
67051;SDS011;53957;47.222;18.670;2022-11-20T09:07:29;18.15;;;11.35;;
67051;SDS011;53957;47.222;18.670;2022-11-20T09:10:32;19.50;;;11.52;;
67051;SDS011;53957;47.222;18.670;2022-11-20T09:13:35;15.75;;;9.80;;
67051;SDS011;53957;47.222;18.670;2022-11-20T09:16:39;19.15;;;10.70;;
67051;SDS011;53957;47.222;18.670;2022-11-20T09:19:42;21.52;;;11.12;;
67051;SDS011;53957;47.222;18.670;2022-11-20T09:22:46;16.10;;;10.73;;
67051;SDS011;53957;47.222;18.670;2022-11-20T09:25:49;16.15;;;10.80;;
67051;SDS011;53957;47.222;18.670;2022-11-20T09:28:52;18.95;;;10.80;;
67051;SDS011;53957;47.222;18.670;2022-11-20T09:31:59;24.55;;;13.55;;
67051;SDS011;53957;47.222;18.670;2022-11-20T09:35:02;21.73;;;12.98;;
67051;SDS011;53957;47.222;18.670;2022-11-20T09:38:06;17.48;;;11.48;;
67051;SDS011;53957;47.222;18.670;2022-11-20T09:41:10;20.92;;;12.15;;
67051;SDS011;53957;47.222;18.670;2022-11-20T09:51:31;15.80;;;9.98;;
67051;SDS011;53957;47.222;18.670;2022-11-20T09:54:35;20.90;;;12.68;;
67051;SDS011;53957;47.222;18.670;2022-11-20T09:57:42;20.40;;;11.85;;
67051;SDS011;53957;47.222;18.670;2022-11-20T10:00:48;17.75;;;11.35;;
67051;SDS011;53957;47.222;18.670;2022-11-20T10:04:03;19.80;;;10.88;;
67051;SDS011;53957;47.222;18.670;2022-11-20T10:07:13;17.52;;;11.02;;
67051;SDS011;53957;47.222;18.670;2022-11-20T10:10:36;15.60;;;10.50;;
67051;SDS011;53957;47.222;18.670;2022-11-20T10:17:15;18.15;;;10.40;;
67051;SDS011;53957;47.222;18.670;2022-11-20T10:30:34;20.98;;;12.20;;
67051;SDS011;53957;47.222;18.670;2022-11-20T10:33:19;22.98;;;12.15;;
67051;SDS011;53957;47.222;18.670;2022-11-20T10:36:30;21.15;;;12.15;;
67051;SDS011;53957;47.222;18.670;2022-11-20T10:39:51;22.05;;;13.02;;
67051;SDS011;53957;47.222;18.670;2022-11-20T10:43:10;21.35;;;11.52;;
67051;SDS011;53957;47.222;18.670;2022-11-20T10:46:16;19.75;;;12.23;;
67051;SDS011;53957;47.222;18.670;2022-11-20T10:49:46;22.70;;;12.57;;
67051;SDS011;53957;47.222;18.670;2022-11-20T10:52:58;20.90;;;11.88;;
67051;SDS011;53957;47.222;18.670;2022-11-20T10:56:19;24.10;;;14.27;;
67051;SDS011;53957;47.222;18.670;2022-11-20T11:02:55;22.67;;;13.90;;
67051;SDS011;53957;47.222;18.670;2022-11-20T11:06:14;22.75;;;14.30;;
67051;SDS011;53957;47.222;18.670;2022-11-20T11:09:21;25.17;;;13.27;;
67051;SDS011;53957;47.222;18.670;2022-11-20T11:12:32;34.55;;;20.90;;
67051;SDS011;53957;47.222;18.670;2022-11-20T11:15:37;33.85;;;21.45;;
67051;SDS011;53957;47.222;18.670;2022-11-20T11:18:43;27.23;;;16.83;;
67051;SDS011;53957;47.222;18.670;2022-11-20T11:21:47;26.73;;;17.67;;
67051;SDS011;53957;47.222;18.670;2022-11-20T11:24:56;38.60;;;19.87;;
67051;SDS011;53957;47.222;18.670;2022-11-20T11:28:01;27.87;;;14.80;;
67051;SDS011;53957;47.222;18.670;2022-11-20T11:31:28;22.13;;;12.18;;
67051;SDS011;53957;47.222;18.670;2022-11-20T11:34:32;19.20;;;12.00;;
67051;SDS011;53957;47.222;18.670;2022-11-20T11:37:36;22.90;;;12.07;;
67051;SDS011;53957;47.222;18.670;2022-11-20T11:40:41;17.15;;;11.05;;
67051;SDS011;53957;47.222;18.670;2022-11-20T11:43:54;18.20;;;11.75;;
67051;SDS011;53957;47.222;18.670;2022-11-20T11:50:28;25.35;;;12.15;;
67051;SDS011;53957;47.222;18.670;2022-11-20T11:53:33;21.65;;;12.30;;
67051;SDS011;53957;47.222;18.670;2022-11-20T11:56:43;18.87;;;12.40;;
67051;SDS011;53957;47.222;18.670;2022-11-20T12:06:58;19.80;;;10.10;;
67051;SDS011;53957;47.222;18.670;2022-11-20T12:13:46;18.73;;;10.45;;
67051;SDS011;53957;47.222;18.670;2022-11-20T12:16:55;17.05;;;10.10;;
67051;SDS011;53957;47.222;18.670;2022-11-20T12:20:00;20.48;;;11.10;;
67051;SDS011;53957;47.222;18.670;2022-11-20T12:23:21;16.48;;;11.85;;
67051;SDS011;53957;47.222;18.670;2022-11-20T12:36:35;16.05;;;10.25;;
67051;SDS011;53957;47.222;18.670;2022-11-20T12:39:50;18.62;;;11.50;;
67051;SDS011;53957;47.222;18.670;2022-11-20T13:06:52;17.92;;;9.75;;
67051;SDS011;53957;47.222;18.670;2022-11-20T13:09:56;17.10;;;9.95;;
67051;SDS011;53957;47.222;18.670;2022-11-20T13:13:14;17.08;;;9.82;;
67051;SDS011;53957;47.222;18.670;2022-11-20T13:19:40;14.05;;;9.80;;
67051;SDS011;53957;47.222;18.670;2022-11-20T13:25:50;16.80;;;9.43;;
67051;SDS011;53957;47.222;18.670;2022-11-20T13:32:24;13.57;;;10.02;;
67051;SDS011;53957;47.222;18.670;2022-11-20T13:35:31;16.70;;;10.45;;
67051;SDS011;53957;47.222;18.670;2022-11-20T13:38:49;16.98;;;10.32;;
67051;SDS011;53957;47.222;18.670;2022-11-20T13:42:00;16.85;;;10.60;;
67051;SDS011;53957;47.222;18.670;2022-11-20T13:45:09;25.33;;;11.10;;
67051;SDS011;53957;47.222;18.670;2022-11-20T13:48:20;18.80;;;10.40;;
67051;SDS011;53957;47.222;18.670;2022-11-20T13:51:35;22.25;;;10.90;;
67051;SDS011;53957;47.222;18.670;2022-11-20T14:01:16;20.85;;;11.20;;
67051;SDS011;53957;47.222;18.670;2022-11-20T14:04:26;28.95;;;11.52;;
67051;SDS011;53957;47.222;18.670;2022-11-20T14:07:35;19.70;;;11.00;;
67051;SDS011;53957;47.222;18.670;2022-11-20T14:10:43;21.35;;;11.88;;
67051;SDS011;53957;47.222;18.670;2022-11-20T14:20:29;17.70;;;9.88;;
67051;SDS011;53957;47.222;18.670;2022-11-20T14:23:33;17.23;;;10.57;;
67051;SDS011;53957;47.222;18.670;2022-11-20T14:26:46;17.02;;;10.30;;
67051;SDS011;53957;47.222;18.670;2022-11-20T14:29:49;16.92;;;10.52;;
67051;SDS011;53957;47.222;18.670;2022-11-20T14:32:53;17.70;;;10.52;;
67051;SDS011;53957;47.222;18.670;2022-11-20T15:31:23;22.77;;;14.15;;
67051;SDS011;53957;47.222;18.670;2022-11-20T15:34:26;36.30;;;18.20;;
67051;SDS011;53957;47.222;18.670;2022-11-20T15:37:29;35.92;;;21.15;;
67051;SDS011;53957;47.222;18.670;2022-11-20T15:40:32;55.00;;;26.67;;
67051;SDS011;53957;47.222;18.670;2022-11-20T15:43:35;54.05;;;29.83;;
67051;SDS011;53957;47.222;18.670;2022-11-20T15:46:39;55.90;;;31.50;;
67051;SDS011;53957;47.222;18.670;2022-11-20T15:49:45;45.30;;;25.48;;
67051;SDS011;53957;47.222;18.670;2022-11-20T15:52:48;48.85;;;23.95;;
67051;SDS011;53957;47.222;18.670;2022-11-20T15:55:51;40.42;;;22.42;;
67051;SDS011;53957;47.222;18.670;2022-11-20T15:58:54;34.75;;;17.83;;
67051;SDS011;53957;47.222;18.670;2022-11-20T16:01:57;34.97;;;16.10;;
67051;SDS011;53957;47.222;18.670;2022-11-20T16:04:59;28.85;;;15.15;;
67051;SDS011;53957;47.222;18.670;2022-11-20T16:08:02;36.55;;;15.02;;
67051;SDS011;53957;47.222;18.670;2022-11-20T16:11:13;23.60;;;13.15;;
67051;SDS011;53957;47.222;18.670;2022-11-20T16:14:17;36.30;;;17.83;;
67051;SDS011;53957;47.222;18.670;2022-11-20T16:17:39;58.10;;;27.45;;
67051;SDS011;53957;47.222;18.670;2022-11-20T16:20:45;42.42;;;20.62;;
67051;SDS011;53957;47.222;18.670;2022-11-20T16:23:49;44.95;;;23.45;;
67051;SDS011;53957;47.222;18.670;2022-11-20T16:26:53;33.35;;;18.17;;
67051;SDS011;53957;47.222;18.670;2022-11-20T16:29:56;38.97;;;21.50;;
67051;SDS011;53957;47.222;18.670;2022-11-20T16:32:59;39.20;;;22.17;;
67051;SDS011;53957;47.222;18.670;2022-11-20T16:36:09;34.97;;;22.00;;
67051;SDS011;53957;47.222;18.670;2022-11-20T16:39:13;49.13;;;26.40;;
67051;SDS011;53957;47.222;18.670;2022-11-20T16:42:24;47.92;;;26.90;;
67051;SDS011;53957;47.222;18.670;2022-11-20T16:45:27;47.92;;;26.25;;
67051;SDS011;53957;47.222;18.670;2022-11-20T16:48:35;46.28;;;26.40;;
67051;SDS011;53957;47.222;18.670;2022-11-20T16:51:38;51.17;;;27.20;;
67051;SDS011;53957;47.222;18.670;2022-11-20T16:54:41;44.88;;;24.63;;
67051;SDS011;53957;47.222;18.670;2022-11-20T16:57:44;32.83;;;20.73;;
67051;SDS011;53957;47.222;18.670;2022-11-20T17:00:47;35.05;;;20.58;;
67051;SDS011;53957;47.222;18.670;2022-11-20T17:04:03;33.65;;;20.52;;
67051;SDS011;53957;47.222;18.670;2022-11-20T17:07:07;39.67;;;21.67;;
67051;SDS011;53957;47.222;18.670;2022-11-20T17:10:10;42.28;;;22.70;;
67051;SDS011;53957;47.222;18.670;2022-11-20T17:13:13;37.00;;;22.02;;
67051;SDS011;53957;47.222;18.670;2022-11-20T17:16:17;43.72;;;23.87;;
67051;SDS011;53957;47.222;18.670;2022-11-20T17:19:21;32.47;;;20.55;;
67051;SDS011;53957;47.222;18.670;2022-11-20T17:22:24;43.22;;;22.33;;
67051;SDS011;53957;47.222;18.670;2022-11-20T17:25:27;40.95;;;20.65;;
67051;SDS011;53957;47.222;18.670;2022-11-20T17:28:30;41.50;;;21.30;;
67051;SDS011;53957;47.222;18.670;2022-11-20T19:26:16;27.50;;;15.82;;
67051;SDS011;53957;47.222;18.670;2022-11-20T19:29:20;32.95;;;19.87;;
67051;SDS011;53957;47.222;18.670;2022-11-20T19:32:23;23.17;;;15.73;;
67051;SDS011;53957;47.222;18.670;2022-11-20T19:35:27;29.20;;;17.10;;
67051;SDS011;53957;47.222;18.670;2022-11-20T19:38:30;32.15;;;18.00;;
67051;SDS011;53957;47.222;18.670;2022-11-20T19:41:33;34.38;;;19.42;;
67051;SDS011;53957;47.222;18.670;2022-11-20T19:44:37;38.53;;;20.75;;
67051;SDS011;53957;47.222;18.670;2022-11-20T19:48:20;34.83;;;20.98;;
67051;SDS011;53957;47.222;18.670;2022-11-20T19:51:46;40.08;;;22.85;;
67051;SDS011;53957;47.222;18.670;2022-11-20T19:54:53;42.22;;;24.52;;
67051;SDS011;53957;47.222;18.670;2022-11-20T19:57:56;40.58;;;22.20;;
67051;SDS011;53957;47.222;18.670;2022-11-20T20:01:13;36.03;;;18.80;;
67051;SDS011;53957;47.222;18.670;2022-11-20T20:04:45;33.92;;;17.55;;
67051;SDS011;53957;47.222;18.670;2022-11-20T20:07:48;37.97;;;21.08;;
67051;SDS011;53957;47.222;18.670;2022-11-20T20:14:14;31.70;;;19.70;;
67051;SDS011;53957;47.222;18.670;2022-11-20T20:17:17;34.67;;;19.02;;
67051;SDS011;53957;47.222;18.670;2022-11-20T20:20:21;33.45;;;19.52;;
67051;SDS011;53957;47.222;18.670;2022-11-20T20:23:24;37.53;;;19.70;;
67051;SDS011;53957;47.222;18.670;2022-11-20T20:26:36;43.55;;;24.25;;
67051;SDS011;53957;47.222;18.670;2022-11-20T20:29:44;92.80;;;42.10;;
67051;SDS011;53957;47.222;18.670;2022-11-20T20:32:46;84.65;;;38.30;;
67051;SDS011;53957;47.222;18.670;2022-11-20T20:35:57;65.25;;;31.37;;
67051;SDS011;53957;47.222;18.670;2022-11-20T20:39:02;69.80;;;30.30;;
67051;SDS011;53957;47.222;18.670;2022-11-20T20:42:11;62.03;;;29.00;;
67051;SDS011;53957;47.222;18.670;2022-11-20T20:45:14;59.78;;;32.00;;
67051;SDS011;53957;47.222;18.670;2022-11-20T20:48:19;50.63;;;25.40;;
67051;SDS011;53957;47.222;18.670;2022-11-20T20:51:23;49.13;;;24.50;;
67051;SDS011;53957;47.222;18.670;2022-11-20T20:54:26;43.03;;;23.58;;
67051;SDS011;53957;47.222;18.670;2022-11-20T20:57:35;33.25;;;20.40;;
67051;SDS011;53957;47.222;18.670;2022-11-20T21:00:39;34.40;;;18.73;;
67051;SDS011;53957;47.222;18.670;2022-11-20T21:03:42;29.90;;;17.42;;
67051;SDS011;53957;47.222;18.670;2022-11-20T21:06:46;32.30;;;17.62;;
67051;SDS011;53957;47.222;18.670;2022-11-20T21:09:51;38.83;;;18.27;;
67051;SDS011;53957;47.222;18.670;2022-11-20T21:12:54;31.40;;;17.60;;
67051;SDS011;53957;47.222;18.670;2022-11-20T21:15:57;32.33;;;18.95;;
67051;SDS011;53957;47.222;18.670;2022-11-20T21:19:01;28.40;;;16.35;;
67051;SDS011;53957;47.222;18.670;2022-11-20T21:22:05;33.67;;;19.05;;
67051;SDS011;53957;47.222;18.670;2022-11-20T21:25:09;34.97;;;20.27;;
67051;SDS011;53957;47.222;18.670;2022-11-20T21:28:25;32.30;;;18.50;;
67051;SDS011;53957;47.222;18.670;2022-11-20T21:31:48;30.25;;;15.95;;
67051;SDS011;53957;47.222;18.670;2022-11-20T21:34:51;30.02;;;16.52;;
67051;SDS011;53957;47.222;18.670;2022-11-20T21:37:54;24.48;;;14.95;;
67051;SDS011;53957;47.222;18.670;2022-11-20T21:40:57;29.08;;;15.38;;
67051;SDS011;53957;47.222;18.670;2022-11-20T21:44:05;29.55;;;15.60;;
67051;SDS011;53957;47.222;18.670;2022-11-20T21:47:29;24.92;;;15.30;;
67051;SDS011;53957;47.222;18.670;2022-11-20T21:50:33;29.92;;;15.38;;
67051;SDS011;53957;47.222;18.670;2022-11-20T21:53:39;37.50;;;17.62;;
67051;SDS011;53957;47.222;18.670;2022-11-20T21:56:48;37.33;;;19.27;;
67051;SDS011;53957;47.222;18.670;2022-11-20T21:59:50;29.77;;;16.12;;
67051;SDS011;53957;47.222;18.670;2022-11-20T22:02:54;25.70;;;14.57;;
67051;SDS011;53957;47.222;18.670;2022-11-20T22:05:59;27.10;;;14.45;;
67051;SDS011;53957;47.222;18.670;2022-11-20T22:09:22;34.03;;;15.07;;
67051;SDS011;53957;47.222;18.670;2022-11-20T22:12:25;29.73;;;15.27;;
67051;SDS011;53957;47.222;18.670;2022-11-20T22:15:36;23.27;;;13.62;;
67051;SDS011;53957;47.222;18.670;2022-11-20T22:19:08;19.83;;;14.23;;
67051;SDS011;53957;47.222;18.670;2022-11-20T22:22:11;30.23;;;16.33;;
67051;SDS011;53957;47.222;18.670;2022-11-20T22:25:14;27.83;;;14.48;;
67051;SDS011;53957;47.222;18.670;2022-11-20T22:28:17;27.92;;;14.48;;
67051;SDS011;53957;47.222;18.670;2022-11-20T22:31:22;26.75;;;15.77;;
67051;SDS011;53957;47.222;18.670;2022-11-20T22:34:26;24.85;;;15.52;;
67051;SDS011;53957;47.222;18.670;2022-11-20T22:37:29;27.92;;;15.98;;
67051;SDS011;53957;47.222;18.670;2022-11-20T22:40:52;29.67;;;17.55;;
67051;SDS011;53957;47.222;18.670;2022-11-20T22:44:04;36.92;;;17.23;;
67051;SDS011;53957;47.222;18.670;2022-11-20T22:47:08;32.50;;;17.10;;
67051;SDS011;53957;47.222;18.670;2022-11-20T22:50:15;22.83;;;15.38;;
67051;SDS011;53957;47.222;18.670;2022-11-20T22:53:18;25.42;;;16.00;;
67051;SDS011;53957;47.222;18.670;2022-11-20T22:56:24;24.52;;;14.27;;
67051;SDS011;53957;47.222;18.670;2022-11-20T22:59:43;27.20;;;14.57;;